Main page
METAR-TAF:

METAR-TAF

Airports :

Republic Airport

Farmingdale, New York, United States

latitude: 40-44-03N, longitude: 073-25-01W, elevation: 79 ft

Current weather observation

The report was made 51 minutes ago, at 01:53 UTC
Calm wind
Temperature 32°F
Humidity 51%
Pressure 30.48 in. Hg
Visibility: 10 miles
Clear sky

METAR: KFRG 080153Z AUTO 00000KT 10SM CLR 00/M09 A3048 RMK AO2 SLP321 T00001094

Time: 21:44 (02:44 UTC)


TAF: missing

Weather observations and forecasts of more than 4000 airports (METAR and TAF reports).

The available stations are represented by yellow and red dots on the map.

Hover mouse over dot to see the name of the station.

Then click to see weather observations and forecasts.

To change the map : click on the green buttons with a black cross to zoom in, on the green button with a dash to zoom out, or on the green arrows for adjacent maps.


METAR-TAF: